createdAt,value
2023-10-20T00:00:51.244Z,19.30
2023-10-20T00:03:18.280Z,19.33
2023-10-20T00:05:45.148Z,18.87
2023-10-20T00:08:11.618Z,18.43
2023-10-20T00:10:38.371Z,17.70
2023-10-20T00:13:06.240Z,19.13
2023-10-20T00:15:34.664Z,18.97
2023-10-20T00:18:48.232Z,17.83
2023-10-20T00:21:15.019Z,18.93
2023-10-20T00:23:41.628Z,18.83
2023-10-20T00:26:08.270Z,19.57
2023-10-20T00:28:34.850Z,19.10
2023-10-20T00:31:01.385Z,19.30
2023-10-20T00:33:27.967Z,17.83
2023-10-20T00:35:54.487Z,18.47
2023-10-20T00:38:21.010Z,18.40
2023-10-20T00:40:51.849Z,18.73
2023-10-20T00:43:18.703Z,19.13
2023-10-20T00:45:46.117Z,18.77
2023-10-20T00:48:13.560Z,18.90
2023-10-20T00:50:41.415Z,18.37
2023-10-20T00:53:10.440Z,20.17
2023-10-20T00:55:37.659Z,19.30
2023-10-20T00:58:04.729Z,18.67
2023-10-20T01:00:31.333Z,18.27
2023-10-20T01:02:58.725Z,19.60
2023-10-20T01:05:25.457Z,19.17
2023-10-20T01:07:52.219Z,19.73
2023-10-20T01:10:19.642Z,18.07
2023-10-20T01:12:46.123Z,19.70
2023-10-20T01:15:17.164Z,19.33
2023-10-20T01:17:43.922Z,19.43
2023-10-20T01:20:11.451Z,18.67
2023-10-20T01:22:38.213Z,18.73
2023-10-20T01:25:05.100Z,18.50
2023-10-20T01:27:31.664Z,18.40
2023-10-20T01:29:58.159Z,17.90
2023-10-20T01:32:24.705Z,18.17
2023-10-20T01:34:51.464Z,18.30
2023-10-20T01:37:19.183Z,17.90
2023-10-20T01:39:46.186Z,18.17
2023-10-20T01:42:12.675Z,18.03
2023-10-20T01:44:39.352Z,17.17
2023-10-20T01:47:06.300Z,17.53
2023-10-20T01:49:33.025Z,16.60
2023-10-20T01:51:59.610Z,16.63
2023-10-20T01:54:26.164Z,18.13
2023-10-20T01:56:52.759Z,17.33
2023-10-20T01:59:19.376Z,17.83
2023-10-20T02:01:45.892Z,15.37
2023-10-20T02:04:12.621Z,17.33
2023-10-20T02:06:39.213Z,17.00
2023-10-20T02:09:07.356Z,16.73
2023-10-20T02:11:34.044Z,17.40
2023-10-20T02:14:00.624Z,17.10
2023-10-20T02:16:27.232Z,16.27
2023-10-20T02:18:53.723Z,16.57
2023-10-20T02:21:20.382Z,16.37
2023-10-20T02:23:47.349Z,17.20
2023-10-20T02:26:13.929Z,17.40
2023-10-20T02:28:40.553Z,16.70
2023-10-20T02:31:15.351Z,16.83
2023-10-20T02:33:42.211Z,16.17
2023-10-20T02:36:08.695Z,16.47
2023-10-20T02:38:35.532Z,16.23
2023-10-20T02:41:04.916Z,15.20
2023-10-20T02:43:32.800Z,17.10
2023-10-20T02:45:59.314Z,15.57
2023-10-20T02:48:25.950Z,15.47
2023-10-20T02:50:52.485Z,16.60
2023-10-20T02:53:21.712Z,15.97
2023-10-20T02:55:50.715Z,17.13
2023-10-20T02:58:17.653Z,16.83
2023-10-20T03:00:46.040Z,16.07
2023-10-20T03:03:14.794Z,16.57
2023-10-20T03:05:44.677Z,16.97
2023-10-20T03:08:12.399Z,16.77
2023-10-20T03:10:42.718Z,16.77
2023-10-20T03:13:09.254Z,16.73
2023-10-20T03:15:35.854Z,17.50
2023-10-20T03:18:02.455Z,17.57
2023-10-20T03:20:34.103Z,17.03
2023-10-20T03:23:02.340Z,17.03
2023-10-20T03:25:32.340Z,17.53
2023-10-20T03:27:58.855Z,17.03
2023-10-20T03:30:25.374Z,17.47
2023-10-20T03:32:52.512Z,16.97
2023-10-20T03:35:19.200Z,16.83
2023-10-20T03:37:45.963Z,16.70
2023-10-20T03:40:17.332Z,16.37
2023-10-20T03:42:44.435Z,16.43
2023-10-20T03:45:11.821Z,15.67
2023-10-20T03:47:41.547Z,15.83
2023-10-20T03:50:15.359Z,14.40
2023-10-20T03:52:43.053Z,14.60
2023-10-20T03:55:14.515Z,14.70
2023-10-20T03:57:42.805Z,15.60
2023-10-20T04:00:30.586Z,14.77
2023-10-20T04:02:57.984Z,13.97
2023-10-20T04:05:25.348Z,14.20
2023-10-20T04:07:52.129Z,13.27
2023-10-20T04:10:22.149Z,14.77
2023-10-20T04:12:50.080Z,13.07
2023-10-20T04:15:17.524Z,13.40
2023-10-20T04:17:55.983Z,13.90
2023-10-20T04:20:24.730Z,13.57
2023-10-20T04:22:51.503Z,13.27
2023-10-20T04:25:18.722Z,13.47
2023-10-20T04:28:04.102Z,15.27
2023-10-20T04:30:49.844Z,14.40
2023-10-20T04:33:34.737Z,13.53
2023-10-20T04:36:19.774Z,12.67
2023-10-20T04:39:04.902Z,12.80
2023-10-20T04:41:50.166Z,11.43
2023-10-20T04:44:16.933Z,10.47
2023-10-20T04:47:04.239Z,11.40
2023-10-20T04:49:39.976Z,11.60
2023-10-20T04:52:26.122Z,11.53
2023-10-20T04:54:59.516Z,9.97
2023-10-20T04:57:26.013Z,10.20
2023-10-20T05:00:11.868Z,10.47
2023-10-20T05:02:45.467Z,10.33
2023-10-20T05:05:24.210Z,9.83
2023-10-20T05:07:52.271Z,9.53
2023-10-20T05:10:20.621Z,9.53
2023-10-20T05:12:48.019Z,9.60
2023-10-20T05:15:15.251Z,9.87
2023-10-20T05:17:42.431Z,9.93
2023-10-20T05:20:11.861Z,9.77
2023-10-20T05:22:38.346Z,8.97
2023-10-20T05:25:05.620Z,9.87
2023-10-20T05:27:32.122Z,10.27
2023-10-20T05:29:58.636Z,9.63
2023-10-20T05:32:25.382Z,9.37
2023-10-20T05:34:57.926Z,9.93
2023-10-20T05:37:24.639Z,9.83
2023-10-20T05:39:51.200Z,10.57
2023-10-20T05:42:20.737Z,10.83
2023-10-20T05:45:04.574Z,10.30
2023-10-20T05:47:32.260Z,10.10
2023-10-20T05:50:00.480Z,11.27
2023-10-20T05:52:27.076Z,12.43
2023-10-20T05:54:55.213Z,11.43
2023-10-20T05:57:23.690Z,11.57
2023-10-20T05:59:51.116Z,10.53
2023-10-20T06:02:17.720Z,11.00
2023-10-20T06:04:44.895Z,11.53
2023-10-20T06:07:12.112Z,11.07
2023-10-20T06:09:38.900Z,10.33
2023-10-20T06:12:08.520Z,10.13
2023-10-20T06:14:37.524Z,10.03
2023-10-20T06:17:04.819Z,10.67
2023-10-20T06:19:32.738Z,9.10
2023-10-20T06:22:01.494Z,8.90
2023-10-20T06:24:30.761Z,8.30
2023-10-20T06:27:04.049Z,7.87
2023-10-20T06:29:34.733Z,8.57
2023-10-20T06:32:21.620Z,6.77
2023-10-20T06:34:49.506Z,7.60
2023-10-20T06:37:37.911Z,7.13
2023-10-20T06:40:07.928Z,7.97
2023-10-20T06:42:34.701Z,7.27
2023-10-20T06:45:05.917Z,6.80
2023-10-20T06:47:32.824Z,7.63
2023-10-20T06:49:59.427Z,6.83
2023-10-20T06:52:26.983Z,7.43
2023-10-20T06:55:23.433Z,7.47
2023-10-20T06:57:43.951Z,6.87
2023-10-20T07:00:18.072Z,7.00
2023-10-20T07:02:45.230Z,7.43
2023-10-20T07:05:11.891Z,6.87
2023-10-20T07:07:38.435Z,6.80
2023-10-20T07:10:05.363Z,7.17
2023-10-20T07:12:31.895Z,7.07
2023-10-20T07:14:58.464Z,7.20
2023-10-20T07:17:25.110Z,7.40
2023-10-20T07:19:51.776Z,7.37
2023-10-20T07:22:18.328Z,7.33
2023-10-20T07:24:44.854Z,7.20
2023-10-20T07:27:11.722Z,7.47
2023-10-20T07:29:44.066Z,6.77
2023-10-20T07:32:13.225Z,6.40
2023-10-20T07:34:39.916Z,7.30
2023-10-20T07:37:07.902Z,7.10
2023-10-20T07:39:35.528Z,7.20
2023-10-20T07:42:02.163Z,8.70
2023-10-20T07:44:29.410Z,8.77
2023-10-20T07:46:56.015Z,7.50
2023-10-20T07:49:22.712Z,7.50
2023-10-20T07:51:49.234Z,8.20
2023-10-20T07:54:16.131Z,7.97
2023-10-20T07:56:42.666Z,7.73
2023-10-20T07:59:09.461Z,7.53
2023-10-20T08:01:36.042Z,7.57
2023-10-20T08:04:04.026Z,8.50
2023-10-20T08:06:31.461Z,7.43
2023-10-20T08:08:58.722Z,8.10
2023-10-20T08:11:25.309Z,7.37
2023-10-20T08:13:52.296Z,7.77
2023-10-20T08:16:21.570Z,7.93
2023-10-20T08:18:49.805Z,8.10
2023-10-20T08:21:17.248Z,7.93
2023-10-20T08:23:44.742Z,7.73
2023-10-20T08:26:21.145Z,8.80
2023-10-20T08:28:50.145Z,8.10
2023-10-20T08:31:20.904Z,8.53
2023-10-20T08:33:48.530Z,7.80
2023-10-20T08:36:21.640Z,8.37
2023-10-20T08:38:50.643Z,8.70
2023-10-20T08:41:23.122Z,8.57
2023-10-20T08:43:50.710Z,8.20
2023-10-20T08:46:19.048Z,8.10
2023-10-20T08:48:47.392Z,9.53
2023-10-20T08:51:17.628Z,8.77
2023-10-20T08:53:45.968Z,9.30
2023-10-20T08:56:13.487Z,9.07
2023-10-20T08:58:40.244Z,8.77
2023-10-20T09:01:07.190Z,9.50
2023-10-20T09:03:41.880Z,9.20
2023-10-20T09:06:13.097Z,8.93
2023-10-20T09:08:41.037Z,9.37
2023-10-20T09:11:09.340Z,9.07
2023-10-20T09:13:39.013Z,9.73
2023-10-20T09:16:10.569Z,9.27
2023-10-20T09:18:54.665Z,9.70
2023-10-20T09:21:25.657Z,9.53
2023-10-20T09:24:02.090Z,10.10
2023-10-20T09:26:32.817Z,8.97
2023-10-20T09:29:00.438Z,9.37
2023-10-20T09:31:29.441Z,9.80
2023-10-20T09:33:56.384Z,8.73
2023-10-20T09:36:24.348Z,9.63
2023-10-20T09:38:53.878Z,9.70
2023-10-20T09:41:25.851Z,9.93
2023-10-20T09:44:07.691Z,9.53
2023-10-20T09:46:56.996Z,9.13
2023-10-20T09:49:27.231Z,9.87
2023-10-20T09:51:56.434Z,9.43
2023-10-20T09:54:34.648Z,10.80
2023-10-20T09:57:02.353Z,9.87
2023-10-20T09:59:30.603Z,10.30
2023-10-20T10:02:00.090Z,10.60
2023-10-20T10:04:30.558Z,10.30
2023-10-20T10:07:05.062Z,11.37
2023-10-20T10:09:50.438Z,10.80
2023-10-20T10:12:21.517Z,11.43
2023-10-20T10:15:15.074Z,10.27
2023-10-20T10:17:50.024Z,11.30
2023-10-20T10:20:47.999Z,11.57
2023-10-20T10:23:18.366Z,12.83
2023-10-20T10:25:47.632Z,11.43
2023-10-20T10:28:19.167Z,11.73
2023-10-20T10:30:49.220Z,12.33
2023-10-20T10:33:22.379Z,12.17
2023-10-20T10:35:49.207Z,11.53
2023-10-20T10:38:47.640Z,12.10
2023-10-20T10:41:14.288Z,10.63
2023-10-20T10:43:40.980Z,11.47
2023-10-20T10:46:07.902Z,11.60
2023-10-20T10:48:36.649Z,11.40
2023-10-20T10:51:06.885Z,11.07
2023-10-20T10:53:33.641Z,11.13
2023-10-20T10:56:00.274Z,11.33
2023-10-20T10:58:27.008Z,9.87
2023-10-20T11:00:55.648Z,11.13
2023-10-20T11:03:25.588Z,11.23
2023-10-20T11:05:53.825Z,11.40
2023-10-20T11:08:21.156Z,11.97
2023-10-20T11:10:48.231Z,10.57
2023-10-20T11:13:17.241Z,10.93
2023-10-20T11:15:44.416Z,10.73
2023-10-20T11:18:14.272Z,10.60
2023-10-20T11:20:43.467Z,10.57
2023-10-20T11:23:13.334Z,10.60
2023-10-20T11:25:41.986Z,10.23
2023-10-20T11:28:09.079Z,11.70
2023-10-20T11:30:43.424Z,11.57
2023-10-20T11:33:16.010Z,11.90
2023-10-20T11:35:43.391Z,11.00
2023-10-20T11:38:10.459Z,10.57
2023-10-20T11:40:37.104Z,11.00
2023-10-20T11:43:04.378Z,12.03
2023-10-20T11:45:31.112Z,11.83
2023-10-20T11:47:57.777Z,9.90
2023-10-20T11:50:25.093Z,11.17
2023-10-20T11:52:51.956Z,10.97
2023-10-20T11:55:19.493Z,10.80
2023-10-20T11:57:46.317Z,12.10
2023-10-20T12:00:15.177Z,13.13
2023-10-20T12:02:42.373Z,11.70
2023-10-20T12:05:10.701Z,11.43
2023-10-20T12:07:38.365Z,12.80
2023-10-20T12:10:06.581Z,11.43
2023-10-20T12:12:34.076Z,13.00
2023-10-20T12:15:01.620Z,12.13
2023-10-20T12:17:30.774Z,11.33
2023-10-20T12:19:58.270Z,11.80
2023-10-20T12:22:27.029Z,12.43
2023-10-20T12:24:54.105Z,12.73
2023-10-20T12:27:22.404Z,12.80
2023-10-20T12:29:49.474Z,14.03
2023-10-20T12:32:16.281Z,12.80
2023-10-20T12:34:42.923Z,12.87
2023-10-20T12:37:09.844Z,13.17
2023-10-20T12:39:36.462Z,14.27
2023-10-20T12:42:06.569Z,14.87
2023-10-20T12:44:37.201Z,13.87
2023-10-20T12:47:04.491Z,14.23
2023-10-20T12:49:33.058Z,13.63
2023-10-20T12:52:00.605Z,12.00
2023-10-20T12:54:27.550Z,12.27
2023-10-20T12:56:54.264Z,12.00
2023-10-20T12:59:20.889Z,12.83
2023-10-20T13:01:48.230Z,11.10
2023-10-20T13:04:15.063Z,11.57
2023-10-20T13:06:58.294Z,10.30
2023-10-20T13:09:26.984Z,11.37
2023-10-20T13:11:53.867Z,11.40
2023-10-20T13:14:20.744Z,11.43
2023-10-20T13:16:47.729Z,11.37
2023-10-20T13:19:15.206Z,11.43
2023-10-20T13:21:42.857Z,10.00
2023-10-20T13:24:09.969Z,9.77
2023-10-20T13:26:36.799Z,8.77
2023-10-20T13:29:03.945Z,9.57
2023-10-20T13:31:31.618Z,9.37
2023-10-20T13:33:58.186Z,8.40
2023-10-20T13:36:24.789Z,8.37
2023-10-20T13:38:51.297Z,8.60
2023-10-20T13:41:17.840Z,8.70
2023-10-20T13:43:45.729Z,8.90
2023-10-20T13:46:12.742Z,8.13
2023-10-20T13:48:39.451Z,9.07
2023-10-20T13:51:06.401Z,8.60
2023-10-20T13:53:32.942Z,8.70
2023-10-20T13:55:59.717Z,8.30
2023-10-20T13:58:27.800Z,8.87
2023-10-20T14:00:54.595Z,8.93
2023-10-20T14:03:21.457Z,8.57
2023-10-20T14:05:56.509Z,8.70
2023-10-20T14:08:24.179Z,7.97
2023-10-20T14:10:51.195Z,7.83
2023-10-20T14:13:18.502Z,8.83
2023-10-20T14:15:45.204Z,7.87
2023-10-20T14:18:12.919Z,7.87
2023-10-20T14:20:40.657Z,7.87
2023-10-20T14:23:08.866Z,8.50
2023-10-20T14:25:36.325Z,8.97
2023-10-20T14:28:03.164Z,9.03
2023-10-20T14:30:30.744Z,9.70
2023-10-20T14:32:57.275Z,8.13
2023-10-20T14:35:24.171Z,8.30
2023-10-20T14:37:51.217Z,9.17
2023-10-20T14:40:17.966Z,9.30
2023-10-20T14:42:45.087Z,8.53
2023-10-20T14:45:11.682Z,8.93
2023-10-20T14:47:38.359Z,10.50
2023-10-20T14:50:05.325Z,9.87
2023-10-20T14:52:31.884Z,9.37
2023-10-20T14:54:58.550Z,8.97
2023-10-20T14:57:25.173Z,9.37
2023-10-20T14:59:51.773Z,9.27
2023-10-20T15:02:18.541Z,8.67
2023-10-20T15:04:47.237Z,9.43
2023-10-20T15:07:13.966Z,9.13
2023-10-20T15:09:40.630Z,8.70
2023-10-20T15:12:08.816Z,8.93
2023-10-20T15:14:35.619Z,8.37
2023-10-20T15:17:02.572Z,8.43
2023-10-20T15:19:30.845Z,8.60
2023-10-20T15:21:58.357Z,8.60
2023-10-20T15:24:25.005Z,7.70
2023-10-20T15:26:51.843Z,9.13
2023-10-20T15:29:18.985Z,8.40
2023-10-20T15:31:45.597Z,7.87
2023-10-20T15:34:12.304Z,8.07
2023-10-20T15:36:47.897Z,7.60
2023-10-20T15:39:16.063Z,7.07
2023-10-20T15:41:42.797Z,6.97
2023-10-20T15:44:10.067Z,6.97
2023-10-20T15:46:37.295Z,7.83
2023-10-20T15:49:05.195Z,6.73
2023-10-20T15:51:31.701Z,7.43
2023-10-20T15:53:58.395Z,7.13
2023-10-20T15:56:25.818Z,6.90
2023-10-20T15:58:52.528Z,7.57
2023-10-20T16:01:19.087Z,7.57
2023-10-20T16:03:45.659Z,7.53
2023-10-20T16:06:12.330Z,6.30
2023-10-20T16:08:39.689Z,7.00
2023-10-20T16:11:07.001Z,8.23
2023-10-20T16:13:33.722Z,7.00
2023-10-20T16:16:00.510Z,7.53
2023-10-20T16:18:27.106Z,7.17
2023-10-20T16:20:54.107Z,7.73
2023-10-20T16:23:20.717Z,7.47
2023-10-20T16:25:47.241Z,6.90
2023-10-20T16:28:13.916Z,6.83
2023-10-20T16:30:40.709Z,7.67
2023-10-20T16:33:07.364Z,7.83
2023-10-20T16:35:34.326Z,7.20
2023-10-20T16:38:00.976Z,6.87
2023-10-20T16:40:29.239Z,7.00
2023-10-20T16:42:55.785Z,7.00
2023-10-20T16:45:22.342Z,6.87
2023-10-20T16:47:49.137Z,6.87
2023-10-20T16:50:16.444Z,7.50
2023-10-20T16:52:43.538Z,8.10
2023-10-20T16:55:10.464Z,7.50
2023-10-20T16:57:37.141Z,7.30
2023-10-20T17:00:07.092Z,7.27
2023-10-20T17:02:34.114Z,7.60
2023-10-20T17:05:00.730Z,7.50
2023-10-20T17:07:27.552Z,7.73
2023-10-20T17:09:54.249Z,8.10
2023-10-20T17:12:21.527Z,7.47
2023-10-20T17:14:48.533Z,7.03
2023-10-20T17:17:15.642Z,7.20
2023-10-20T17:19:42.379Z,7.00
2023-10-20T17:22:09.635Z,7.47
2023-10-20T17:24:36.195Z,7.63
2023-10-20T17:27:04.158Z,7.83
2023-10-20T17:29:30.964Z,7.87
2023-10-20T17:31:57.762Z,7.50
2023-10-20T17:34:24.343Z,8.20
2023-10-20T17:36:51.682Z,7.70
2023-10-20T17:39:19.601Z,7.53
2023-10-20T17:41:46.666Z,7.13
2023-10-20T17:44:13.652Z,7.90
2023-10-20T17:46:41.295Z,8.03
2023-10-20T17:49:08.387Z,7.87
2023-10-20T17:51:36.277Z,8.50
2023-10-20T17:54:03.019Z,8.43
2023-10-20T17:56:30.873Z,8.30
2023-10-20T17:58:57.462Z,7.63
2023-10-20T18:01:24.053Z,7.57
2023-10-20T18:03:50.756Z,8.20
2023-10-20T18:06:21.877Z,7.57
2023-10-20T18:08:53.435Z,7.43
2023-10-20T18:11:22.105Z,7.67
2023-10-20T18:13:50.661Z,7.33
2023-10-20T18:16:19.372Z,7.17
2023-10-20T18:18:51.726Z,7.47
2023-10-20T18:21:20.572Z,7.60
2023-10-20T18:23:48.346Z,7.33
2023-10-20T18:26:15.170Z,7.53
2023-10-20T18:28:42.037Z,7.43
2023-10-20T18:31:13.392Z,7.40
2023-10-20T18:33:40.316Z,7.00
2023-10-20T18:36:07.451Z,7.37
2023-10-20T18:38:34.225Z,7.43
2023-10-20T18:41:02.842Z,7.60
2023-10-20T18:43:34.753Z,6.90
2023-10-20T18:46:01.793Z,7.40
2023-10-20T18:48:29.869Z,7.03
2023-10-20T18:51:06.349Z,7.23
2023-10-20T18:53:33.621Z,7.20
2023-10-20T18:56:00.244Z,7.10
2023-10-20T18:58:26.962Z,6.90
2023-10-20T19:00:54.123Z,7.77
2023-10-20T19:03:21.446Z,6.70
2023-10-20T19:05:49.736Z,6.93
2023-10-20T19:08:17.145Z,6.73
2023-10-20T19:10:43.883Z,6.77
2023-10-20T19:13:10.828Z,7.57
2023-10-20T19:15:37.629Z,7.00
2023-10-20T19:18:05.064Z,6.03
2023-10-20T19:20:32.713Z,6.70
2023-10-20T19:23:00.877Z,7.37
2023-10-20T19:25:27.449Z,6.67
2023-10-20T19:27:53.943Z,6.80
2023-10-20T19:30:20.589Z,6.47
2023-10-20T19:32:47.137Z,6.23
2023-10-20T19:35:14.843Z,6.03
2023-10-20T19:37:41.423Z,6.70
2023-10-20T19:40:08.325Z,6.60
2023-10-20T19:42:34.794Z,6.73
2023-10-20T19:45:02.380Z,6.10
2023-10-20T19:47:29.374Z,6.43
2023-10-20T19:49:55.989Z,6.30
2023-10-20T19:52:23.709Z,6.37
2023-10-20T19:54:50.291Z,6.23
2023-10-20T19:57:16.986Z,6.37
2023-10-20T19:59:43.635Z,6.67
2023-10-20T20:02:10.278Z,6.43
2023-10-20T20:04:37.473Z,6.60
2023-10-20T20:07:04.446Z,6.87
2023-10-20T20:09:30.904Z,7.10
2023-10-20T20:11:57.976Z,6.57
2023-10-20T20:14:24.500Z,6.77
2023-10-20T20:16:51.126Z,6.27
2023-10-20T20:19:17.670Z,7.20
2023-10-20T20:21:44.343Z,5.93
2023-10-20T20:24:10.837Z,6.27
2023-10-20T20:26:37.566Z,6.63
2023-10-20T20:29:05.570Z,7.40
2023-10-20T20:31:32.541Z,6.37
2023-10-20T20:33:59.240Z,6.87
2023-10-20T20:36:26.069Z,6.80
2023-10-20T20:38:52.667Z,6.63
2023-10-20T20:41:19.197Z,6.67
2023-10-20T20:43:45.838Z,7.53
2023-10-20T20:46:12.558Z,7.10
2023-10-20T20:48:39.834Z,6.80
2023-10-20T20:51:11.075Z,6.87
2023-10-20T20:53:37.939Z,7.10
2023-10-20T20:56:04.761Z,6.97
2023-10-20T20:58:32.315Z,7.10
2023-10-20T21:01:01.210Z,7.10
2023-10-20T21:03:28.084Z,7.77
2023-10-20T21:06:02.512Z,7.87
2023-10-20T21:08:29.438Z,7.90
2023-10-20T21:11:08.953Z,8.53
2023-10-20T21:13:36.452Z,7.67
2023-10-20T21:16:07.041Z,8.50
2023-10-20T21:18:34.143Z,8.27
2023-10-20T21:21:01.549Z,7.70
2023-10-20T21:23:29.291Z,8.33
2023-10-20T21:26:00.593Z,8.80
2023-10-20T21:28:27.381Z,8.30
2023-10-20T21:30:53.842Z,8.67
2023-10-20T21:33:20.399Z,8.97
2023-10-20T21:35:46.978Z,8.87
2023-10-20T21:38:13.424Z,9.83
2023-10-20T21:40:46.485Z,9.60
2023-10-20T21:43:14.351Z,9.13
2023-10-20T21:45:40.838Z,9.57
2023-10-20T21:48:07.985Z,9.60
2023-10-20T21:50:34.700Z,9.90
2023-10-20T21:53:01.336Z,10.07
2023-10-20T21:55:29.140Z,10.03
2023-10-20T21:57:55.635Z,9.87
2023-10-20T22:00:27.642Z,10.57
2023-10-20T22:02:54.584Z,10.33
2023-10-20T22:05:21.289Z,11.37
2023-10-20T22:07:47.837Z,12.33
2023-10-20T22:10:14.385Z,11.30
2023-10-20T22:12:40.851Z,11.73
2023-10-20T22:15:08.303Z,11.50
2023-10-20T22:17:35.834Z,12.63
2023-10-20T22:20:03.236Z,11.57
2023-10-20T22:22:30.521Z,11.67
2023-10-20T22:24:57.368Z,12.30
2023-10-20T22:27:28.010Z,12.33
2023-10-20T22:29:55.372Z,13.27
2023-10-20T22:32:22.105Z,12.97
2023-10-20T22:34:48.755Z,12.63
2023-10-20T22:37:15.376Z,12.33
2023-10-20T22:39:42.038Z,12.93
2023-10-20T22:42:08.694Z,13.13
2023-10-20T22:44:35.249Z,13.33
2023-10-20T22:47:01.967Z,13.70
2023-10-20T22:49:29.263Z,13.63
2023-10-20T22:51:55.890Z,12.93
2023-10-20T22:54:22.554Z,15.10
2023-10-20T22:56:49.064Z,13.00
2023-10-20T22:59:15.719Z,15.80
2023-10-20T23:01:42.449Z,14.67
2023-10-20T23:04:09.169Z,13.80
2023-10-20T23:06:35.921Z,14.00
2023-10-20T23:09:04.186Z,14.60
2023-10-20T23:11:30.736Z,14.83
2023-10-20T23:13:57.177Z,15.30
2023-10-20T23:16:24.125Z,14.87
2023-10-20T23:18:56.478Z,14.77
2023-10-20T23:21:23.880Z,15.47
2023-10-20T23:23:50.471Z,15.43
2023-10-20T23:26:17.343Z,16.47
2023-10-20T23:28:43.978Z,16.40
2023-10-20T23:31:10.619Z,15.80
2023-10-20T23:33:37.214Z,15.67
2023-10-20T23:36:04.821Z,16.23
2023-10-20T23:38:31.492Z,16.43
2023-10-20T23:40:57.947Z,17.47
2023-10-20T23:43:24.453Z,17.67
2023-10-20T23:45:51.198Z,17.33
2023-10-20T23:48:17.939Z,16.57
2023-10-20T23:50:44.554Z,17.33
2023-10-20T23:53:11.753Z,17.13
2023-10-20T23:55:38.305Z,15.93
2023-10-20T23:58:05.030Z,16.30
